sensor_id;sensor_type;location;lat;lon;timestamp;P1;durP1;ratioP1;P2;durP2;ratioP2
50350;SDS011;36250;48.740;22.174;2022-09-30T00:01:05;20.85;;;16.67;;
50350;SDS011;36250;48.740;22.174;2022-09-30T00:03:30;20.45;;;16.85;;
50350;SDS011;36250;48.740;22.174;2022-09-30T00:05:59;21.55;;;17.75;;
50350;SDS011;36250;48.740;22.174;2022-09-30T00:08:26;20.13;;;17.48;;
50350;SDS011;36250;48.740;22.174;2022-09-30T00:11:25;21.95;;;16.27;;
50350;SDS011;36250;48.740;22.174;2022-09-30T00:13:46;19.42;;;17.33;;
50350;SDS011;36250;48.740;22.174;2022-09-30T00:16:13;20.67;;;17.25;;
50350;SDS011;36250;48.740;22.174;2022-09-30T00:18:40;23.45;;;17.23;;
50350;SDS011;36250;48.740;22.174;2022-09-30T00:21:06;25.75;;;18.73;;
50350;SDS011;36250;48.740;22.174;2022-09-30T00:23:33;27.25;;;19.02;;
50350;SDS011;36250;48.740;22.174;2022-09-30T00:26:01;25.95;;;18.13;;
50350;SDS011;36250;48.740;22.174;2022-09-30T00:28:29;26.65;;;19.73;;
50350;SDS011;36250;48.740;22.174;2022-09-30T00:30:59;30.73;;;20.60;;
50350;SDS011;36250;48.740;22.174;2022-09-30T00:33:25;22.77;;;18.67;;
50350;SDS011;36250;48.740;22.174;2022-09-30T00:35:51;21.48;;;18.73;;
50350;SDS011;36250;48.740;22.174;2022-09-30T00:38:16;24.50;;;18.30;;
50350;SDS011;36250;48.740;22.174;2022-09-30T00:40:42;23.60;;;18.52;;
50350;SDS011;36250;48.740;22.174;2022-09-30T00:43:12;23.48;;;17.63;;
50350;SDS011;36250;48.740;22.174;2022-09-30T00:45:39;21.25;;;16.17;;
50350;SDS011;36250;48.740;22.174;2022-09-30T00:48:20;25.52;;;18.23;;
50350;SDS011;36250;48.740;22.174;2022-09-30T00:50:54;19.80;;;17.50;;
50350;SDS011;36250;48.740;22.174;2022-09-30T00:53:27;21.83;;;17.98;;
50350;SDS011;36250;48.740;22.174;2022-09-30T00:56:00;22.23;;;16.60;;
50350;SDS011;36250;48.740;22.174;2022-09-30T00:58:29;22.08;;;16.55;;
50350;SDS011;36250;48.740;22.174;2022-09-30T01:01:00;22.35;;;15.13;;
50350;SDS011;36250;48.740;22.174;2022-09-30T01:03:34;21.48;;;15.23;;
50350;SDS011;36250;48.740;22.174;2022-09-30T01:06:02;22.92;;;14.30;;
50350;SDS011;36250;48.740;22.174;2022-09-30T01:08:28;16.63;;;14.40;;
50350;SDS011;36250;48.740;22.174;2022-09-30T01:10:56;17.30;;;14.32;;
50350;SDS011;36250;48.740;22.174;2022-09-30T01:13:21;18.50;;;14.05;;
50350;SDS011;36250;48.740;22.174;2022-09-30T01:24:11;15.30;;;13.63;;
50350;SDS011;36250;48.740;22.174;2022-09-30T01:27:04;17.40;;;13.82;;
50350;SDS011;36250;48.740;22.174;2022-09-30T01:40:50;18.10;;;15.52;;
50350;SDS011;36250;48.740;22.174;2022-09-30T01:46:05;17.08;;;14.52;;
50350;SDS011;36250;48.740;22.174;2022-09-30T01:52:09;22.77;;;16.83;;
50350;SDS011;36250;48.740;22.174;2022-09-30T01:55:40;21.40;;;16.70;;
50350;SDS011;36250;48.740;22.174;2022-09-30T01:57:51;21.52;;;17.90;;
50350;SDS011;36250;48.740;22.174;2022-09-30T02:00:26;21.27;;;16.65;;
50350;SDS011;36250;48.740;22.174;2022-09-30T02:03:00;21.38;;;16.90;;
50350;SDS011;36250;48.740;22.174;2022-09-30T02:05:40;24.90;;;16.52;;
50350;SDS011;36250;48.740;22.174;2022-09-30T02:08:14;19.40;;;16.50;;
50350;SDS011;36250;48.740;22.174;2022-09-30T02:10:45;24.77;;;18.40;;
50350;SDS011;36250;48.740;22.174;2022-09-30T02:13:18;17.67;;;15.77;;
50350;SDS011;36250;48.740;22.174;2022-09-30T02:15:56;19.92;;;17.02;;
50350;SDS011;36250;48.740;22.174;2022-09-30T02:21:26;18.55;;;14.68;;
50350;SDS011;36250;48.740;22.174;2022-09-30T02:23:58;17.75;;;14.93;;
50350;SDS011;36250;48.740;22.174;2022-09-30T02:26:29;19.98;;;14.77;;
50350;SDS011;36250;48.740;22.174;2022-09-30T02:29:03;16.25;;;14.65;;
50350;SDS011;36250;48.740;22.174;2022-09-30T02:31:34;17.52;;;13.73;;
50350;SDS011;36250;48.740;22.174;2022-09-30T02:34:05;17.20;;;14.25;;
50350;SDS011;36250;48.740;22.174;2022-09-30T02:36:55;18.00;;;14.38;;
50350;SDS011;36250;48.740;22.174;2022-09-30T02:42:19;17.05;;;14.38;;
50350;SDS011;36250;48.740;22.174;2022-09-30T02:44:48;16.77;;;14.98;;
50350;SDS011;36250;48.740;22.174;2022-09-30T02:49:48;14.52;;;13.07;;
50350;SDS011;36250;48.740;22.174;2022-09-30T02:55:25;17.58;;;12.48;;
50350;SDS011;36250;48.740;22.174;2022-09-30T03:00:25;20.73;;;14.48;;
50350;SDS011;36250;48.740;22.174;2022-09-30T03:03:04;15.50;;;13.80;;
50350;SDS011;36250;48.740;22.174;2022-09-30T03:05:40;18.17;;;13.50;;
50350;SDS011;36250;48.740;22.174;2022-09-30T03:08:05;18.48;;;14.35;;
50350;SDS011;36250;48.740;22.174;2022-09-30T03:10:31;19.27;;;14.65;;
50350;SDS011;36250;48.740;22.174;2022-09-30T03:15:40;15.95;;;13.77;;
50350;SDS011;36250;48.740;22.174;2022-09-30T03:26:23;19.05;;;14.52;;
50350;SDS011;36250;48.740;22.174;2022-09-30T03:31:59;18.00;;;14.95;;
50350;SDS011;36250;48.740;22.174;2022-09-30T03:37:17;15.68;;;11.80;;
50350;SDS011;36250;48.740;22.174;2022-09-30T03:42:32;18.00;;;12.93;;
50350;SDS011;36250;48.740;22.174;2022-09-30T03:47:41;14.63;;;11.85;;
50350;SDS011;36250;48.740;22.174;2022-09-30T03:50:11;14.63;;;12.52;;
50350;SDS011;36250;48.740;22.174;2022-09-30T03:52:39;13.57;;;11.85;;
50350;SDS011;36250;48.740;22.174;2022-09-30T03:55:05;23.45;;;14.07;;
50350;SDS011;36250;48.740;22.174;2022-09-30T03:57:35;14.82;;;13.05;;
50350;SDS011;36250;48.740;22.174;2022-09-30T04:00:03;20.50;;;13.45;;
50350;SDS011;36250;48.740;22.174;2022-09-30T04:02:29;18.88;;;14.15;;
50350;SDS011;36250;48.740;22.174;2022-09-30T04:04:55;20.27;;;16.27;;
50350;SDS011;36250;48.740;22.174;2022-09-30T04:07:20;22.63;;;16.92;;
50350;SDS011;36250;48.740;22.174;2022-09-30T04:09:46;22.83;;;17.05;;
50350;SDS011;36250;48.740;22.174;2022-09-30T04:12:11;25.20;;;21.90;;
50350;SDS011;36250;48.740;22.174;2022-09-30T04:14:36;22.85;;;20.40;;
50350;SDS011;36250;48.740;22.174;2022-09-30T04:17:02;25.63;;;20.40;;
50350;SDS011;36250;48.740;22.174;2022-09-30T04:19:28;22.40;;;18.60;;
50350;SDS011;36250;48.740;22.174;2022-09-30T04:21:54;23.17;;;19.08;;
50350;SDS011;36250;48.740;22.174;2022-09-30T04:24:20;25.30;;;18.35;;
50350;SDS011;36250;48.740;22.174;2022-09-30T04:26:47;25.00;;;19.88;;
50350;SDS011;36250;48.740;22.174;2022-09-30T04:29:12;30.55;;;19.50;;
50350;SDS011;36250;48.740;22.174;2022-09-30T04:31:37;33.88;;;21.38;;
50350;SDS011;36250;48.740;22.174;2022-09-30T04:34:03;26.45;;;19.50;;
50350;SDS011;36250;48.740;22.174;2022-09-30T04:36:28;30.40;;;19.63;;
50350;SDS011;36250;48.740;22.174;2022-09-30T04:38:53;27.67;;;19.33;;
50350;SDS011;36250;48.740;22.174;2022-09-30T04:41:19;30.92;;;19.52;;
50350;SDS011;36250;48.740;22.174;2022-09-30T04:43:44;26.30;;;18.38;;
50350;SDS011;36250;48.740;22.174;2022-09-30T04:46:14;27.25;;;19.95;;
50350;SDS011;36250;48.740;22.174;2022-09-30T04:48:40;28.52;;;19.55;;
50350;SDS011;36250;48.740;22.174;2022-09-30T04:51:09;31.63;;;23.25;;
50350;SDS011;36250;48.740;22.174;2022-09-30T04:53:35;34.63;;;22.17;;
50350;SDS011;36250;48.740;22.174;2022-09-30T04:56:01;35.97;;;23.20;;
50350;SDS011;36250;48.740;22.174;2022-09-30T04:58:29;34.95;;;21.23;;
50350;SDS011;36250;48.740;22.174;2022-09-30T05:01:03;39.00;;;23.88;;
50350;SDS011;36250;48.740;22.174;2022-09-30T05:03:31;33.10;;;22.27;;
50350;SDS011;36250;48.740;22.174;2022-09-30T05:05:56;30.75;;;21.02;;
50350;SDS011;36250;48.740;22.174;2022-09-30T05:08:22;31.33;;;21.92;;
50350;SDS011;36250;48.740;22.174;2022-09-30T05:10:57;33.58;;;22.60;;
50350;SDS011;36250;48.740;22.174;2022-09-30T05:13:25;33.38;;;22.35;;
50350;SDS011;36250;48.740;22.174;2022-09-30T05:15:54;33.42;;;23.58;;
50350;SDS011;36250;48.740;22.174;2022-09-30T05:18:19;34.38;;;24.58;;
50350;SDS011;36250;48.740;22.174;2022-09-30T05:20:49;29.23;;;23.35;;
50350;SDS011;36250;48.740;22.174;2022-09-30T05:23:15;38.25;;;23.98;;
50350;SDS011;36250;48.740;22.174;2022-09-30T05:25:41;39.38;;;25.60;;
50350;SDS011;36250;48.740;22.174;2022-09-30T05:28:06;38.95;;;23.45;;
50350;SDS011;36250;48.740;22.174;2022-09-30T05:30:32;40.03;;;24.02;;
50350;SDS011;36250;48.740;22.174;2022-09-30T05:32:58;43.00;;;23.58;;
50350;SDS011;36250;48.740;22.174;2022-09-30T05:35:23;45.55;;;22.88;;
50350;SDS011;36250;48.740;22.174;2022-09-30T05:37:48;34.92;;;21.83;;
50350;SDS011;36250;48.740;22.174;2022-09-30T05:40:13;42.38;;;25.02;;
50350;SDS011;36250;48.740;22.174;2022-09-30T05:42:39;44.35;;;23.48;;
50350;SDS011;36250;48.740;22.174;2022-09-30T05:45:04;37.97;;;23.77;;
50350;SDS011;36250;48.740;22.174;2022-09-30T05:47:33;43.63;;;24.10;;
50350;SDS011;36250;48.740;22.174;2022-09-30T05:49:58;41.35;;;23.98;;
50350;SDS011;36250;48.740;22.174;2022-09-30T05:52:24;41.03;;;25.83;;
50350;SDS011;36250;48.740;22.174;2022-09-30T05:54:50;41.47;;;23.73;;
50350;SDS011;36250;48.740;22.174;2022-09-30T05:57:15;34.45;;;22.00;;
50350;SDS011;36250;48.740;22.174;2022-09-30T05:59:41;35.78;;;22.08;;
50350;SDS011;36250;48.740;22.174;2022-09-30T06:02:07;28.80;;;22.08;;
50350;SDS011;36250;48.740;22.174;2022-09-30T06:04:34;29.17;;;19.90;;
50350;SDS011;36250;48.740;22.174;2022-09-30T06:06:59;33.85;;;20.73;;
50350;SDS011;36250;48.740;22.174;2022-09-30T06:09:24;33.05;;;21.48;;
50350;SDS011;36250;48.740;22.174;2022-09-30T06:11:50;32.83;;;21.60;;
50350;SDS011;36250;48.740;22.174;2022-09-30T06:14:16;29.52;;;21.88;;
50350;SDS011;36250;48.740;22.174;2022-09-30T06:16:43;40.08;;;24.15;;
50350;SDS011;36250;48.740;22.174;2022-09-30T06:19:09;38.63;;;25.20;;
50350;SDS011;36250;48.740;22.174;2022-09-30T06:21:34;46.15;;;26.80;;
50350;SDS011;36250;48.740;22.174;2022-09-30T06:24:00;47.72;;;28.92;;
50350;SDS011;36250;48.740;22.174;2022-09-30T06:26:25;40.95;;;28.00;;
50350;SDS011;36250;48.740;22.174;2022-09-30T06:28:50;36.05;;;27.35;;
50350;SDS011;36250;48.740;22.174;2022-09-30T06:31:16;40.22;;;28.33;;
50350;SDS011;36250;48.740;22.174;2022-09-30T06:33:41;42.00;;;28.20;;
50350;SDS011;36250;48.740;22.174;2022-09-30T06:36:07;39.83;;;24.50;;
50350;SDS011;36250;48.740;22.174;2022-09-30T06:38:33;34.08;;;25.40;;
50350;SDS011;36250;48.740;22.174;2022-09-30T06:41:01;36.38;;;26.20;;
50350;SDS011;36250;48.740;22.174;2022-09-30T06:43:26;35.92;;;24.92;;
50350;SDS011;36250;48.740;22.174;2022-09-30T06:45:52;33.45;;;22.38;;
50350;SDS011;36250;48.740;22.174;2022-09-30T06:48:17;24.65;;;21.27;;
50350;SDS011;36250;48.740;22.174;2022-09-30T06:50:43;27.98;;;19.88;;
50350;SDS011;36250;48.740;22.174;2022-09-30T06:53:10;24.55;;;19.45;;
50350;SDS011;36250;48.740;22.174;2022-09-30T06:55:36;23.23;;;18.27;;
50350;SDS011;36250;48.740;22.174;2022-09-30T06:58:03;30.60;;;18.52;;
50350;SDS011;36250;48.740;22.174;2022-09-30T07:00:30;27.42;;;18.15;;
50350;SDS011;36250;48.740;22.174;2022-09-30T07:02:55;22.10;;;18.13;;
50350;SDS011;36250;48.740;22.174;2022-09-30T07:05:21;22.80;;;17.73;;
50350;SDS011;36250;48.740;22.174;2022-09-30T07:07:46;24.08;;;18.00;;
50350;SDS011;36250;48.740;22.174;2022-09-30T07:10:13;19.67;;;16.45;;
50350;SDS011;36250;48.740;22.174;2022-09-30T07:12:38;25.40;;;18.42;;
50350;SDS011;36250;48.740;22.174;2022-09-30T07:15:06;23.08;;;18.45;;
50350;SDS011;36250;48.740;22.174;2022-09-30T07:17:31;22.85;;;17.00;;
50350;SDS011;36250;48.740;22.174;2022-09-30T07:19:57;22.10;;;16.88;;
50350;SDS011;36250;48.740;22.174;2022-09-30T07:22:23;24.55;;;19.30;;
50350;SDS011;36250;48.740;22.174;2022-09-30T07:24:51;24.60;;;19.70;;
50350;SDS011;36250;48.740;22.174;2022-09-30T07:27:17;23.90;;;16.33;;
50350;SDS011;36250;48.740;22.174;2022-09-30T07:29:43;52.35;;;46.78;;
50350;SDS011;36250;48.740;22.174;2022-09-30T07:32:09;62.00;;;55.38;;
50350;SDS011;36250;48.740;22.174;2022-09-30T07:34:35;57.30;;;51.58;;
50350;SDS011;36250;48.740;22.174;2022-09-30T07:37:01;42.13;;;36.72;;
50350;SDS011;36250;48.740;22.174;2022-09-30T07:39:28;13.95;;;12.43;;
50350;SDS011;36250;48.740;22.174;2022-09-30T07:41:53;12.55;;;11.30;;
50350;SDS011;36250;48.740;22.174;2022-09-30T07:44:19;24.83;;;22.38;;
50350;SDS011;36250;48.740;22.174;2022-09-30T07:46:44;19.55;;;16.98;;
50350;SDS011;36250;48.740;22.174;2022-09-30T07:49:14;24.92;;;19.35;;
50350;SDS011;36250;48.740;22.174;2022-09-30T07:51:48;18.58;;;14.60;;
50350;SDS011;36250;48.740;22.174;2022-09-30T07:54:15;14.40;;;12.90;;
50350;SDS011;36250;48.740;22.174;2022-09-30T07:56:42;18.92;;;14.65;;
50350;SDS011;36250;48.740;22.174;2022-09-30T07:59:09;17.58;;;11.45;;
50350;SDS011;36250;48.740;22.174;2022-09-30T08:01:35;16.95;;;13.57;;
50350;SDS011;36250;48.740;22.174;2022-09-30T08:04:02;17.10;;;13.82;;
50350;SDS011;36250;48.740;22.174;2022-09-30T08:06:30;15.95;;;11.68;;
50350;SDS011;36250;48.740;22.174;2022-09-30T08:08:56;11.68;;;10.43;;
50350;SDS011;36250;48.740;22.174;2022-09-30T08:11:23;12.68;;;11.20;;
50350;SDS011;36250;48.740;22.174;2022-09-30T08:13:49;17.33;;;10.23;;
50350;SDS011;36250;48.740;22.174;2022-09-30T08:16:24;9.80;;;8.85;;
50350;SDS011;36250;48.740;22.174;2022-09-30T08:18:57;10.23;;;8.73;;
50350;SDS011;36250;48.740;22.174;2022-09-30T08:21:24;8.07;;;7.38;;
50350;SDS011;36250;48.740;22.174;2022-09-30T08:23:50;8.63;;;6.85;;
50350;SDS011;36250;48.740;22.174;2022-09-30T08:26:16;11.55;;;6.70;;
50350;SDS011;36250;48.740;22.174;2022-09-30T08:28:42;9.43;;;6.47;;
50350;SDS011;36250;48.740;22.174;2022-09-30T08:31:12;7.88;;;6.20;;
50350;SDS011;36250;48.740;22.174;2022-09-30T08:33:39;7.13;;;6.10;;
50350;SDS011;36250;48.740;22.174;2022-09-30T08:36:05;11.80;;;9.25;;
50350;SDS011;36250;48.740;22.174;2022-09-30T08:38:32;39.75;;;16.13;;
50350;SDS011;36250;48.740;22.174;2022-09-30T08:41:03;38.50;;;23.15;;
50350;SDS011;36250;48.740;22.174;2022-09-30T08:43:42;46.20;;;27.13;;
50350;SDS011;36250;48.740;22.174;2022-09-30T08:46:11;42.78;;;26.35;;
50350;SDS011;36250;48.740;22.174;2022-09-30T08:49:06;37.88;;;25.80;;
50350;SDS011;36250;48.740;22.174;2022-09-30T08:51:54;33.78;;;24.00;;
50350;SDS011;36250;48.740;22.174;2022-09-30T08:54:24;28.63;;;23.52;;
50350;SDS011;36250;48.740;22.174;2022-09-30T08:56:55;24.67;;;16.02;;
50350;SDS011;36250;48.740;22.174;2022-09-30T08:59:33;22.02;;;15.90;;
50350;SDS011;36250;48.740;22.174;2022-09-30T09:02:19;20.40;;;11.13;;
50350;SDS011;36250;48.740;22.174;2022-09-30T09:04:49;17.48;;;12.43;;
50350;SDS011;36250;48.740;22.174;2022-09-30T09:20:55;10.43;;;8.88;;
50350;SDS011;36250;48.740;22.174;2022-09-30T09:23:23;15.40;;;11.70;;
50350;SDS011;36250;48.740;22.174;2022-09-30T09:25:48;14.98;;;10.00;;
50350;SDS011;36250;48.740;22.174;2022-09-30T09:28:28;11.00;;;8.90;;
50350;SDS011;36250;48.740;22.174;2022-09-30T09:31:01;12.15;;;9.18;;
50350;SDS011;36250;48.740;22.174;2022-09-30T09:33:31;21.17;;;8.43;;
50350;SDS011;36250;48.740;22.174;2022-09-30T09:36:22;9.52;;;8.40;;
50350;SDS011;36250;48.740;22.174;2022-09-30T09:39:16;10.50;;;9.48;;
50350;SDS011;36250;48.740;22.174;2022-09-30T09:41:49;10.75;;;9.52;;
50350;SDS011;36250;48.740;22.174;2022-09-30T09:44:26;18.60;;;10.98;;
50350;SDS011;36250;48.740;22.174;2022-09-30T09:47:08;12.88;;;9.23;;
50350;SDS011;36250;48.740;22.174;2022-09-30T09:49:41;13.13;;;7.60;;
50350;SDS011;36250;48.740;22.174;2022-09-30T09:54:48;11.48;;;7.82;;
50350;SDS011;36250;48.740;22.174;2022-09-30T09:57:19;11.75;;;7.57;;
50350;SDS011;36250;48.740;22.174;2022-09-30T10:02:29;6.60;;;5.28;;
50350;SDS011;36250;48.740;22.174;2022-09-30T10:04:55;6.88;;;6.28;;
50350;SDS011;36250;48.740;22.174;2022-09-30T10:07:27;10.30;;;5.00;;
50350;SDS011;36250;48.740;22.174;2022-09-30T10:10:37;7.47;;;6.13;;
50350;SDS011;36250;48.740;22.174;2022-09-30T10:12:44;8.90;;;5.53;;
50350;SDS011;36250;48.740;22.174;2022-09-30T10:15:18;6.25;;;5.60;;
50350;SDS011;36250;48.740;22.174;2022-09-30T10:17:49;6.35;;;5.85;;
50350;SDS011;36250;48.740;22.174;2022-09-30T10:20:23;9.32;;;6.00;;
50350;SDS011;36250;48.740;22.174;2022-09-30T10:22:59;9.00;;;5.95;;
50350;SDS011;36250;48.740;22.174;2022-09-30T10:25:53;10.13;;;5.78;;
50350;SDS011;36250;48.740;22.174;2022-09-30T10:28:46;11.57;;;6.60;;
50350;SDS011;36250;48.740;22.174;2022-09-30T10:36:20;10.15;;;6.10;;
50350;SDS011;36250;48.740;22.174;2022-09-30T10:38:49;7.70;;;6.10;;
50350;SDS011;36250;48.740;22.174;2022-09-30T10:41:21;11.18;;;7.07;;
50350;SDS011;36250;48.740;22.174;2022-09-30T10:43:49;9.30;;;7.05;;
50350;SDS011;36250;48.740;22.174;2022-09-30T10:46:27;7.60;;;6.80;;
50350;SDS011;36250;48.740;22.174;2022-09-30T10:48:55;7.30;;;6.60;;
50350;SDS011;36250;48.740;22.174;2022-09-30T10:51:24;10.57;;;6.40;;
50350;SDS011;36250;48.740;22.174;2022-09-30T10:53:52;10.93;;;6.82;;
50350;SDS011;36250;48.740;22.174;2022-09-30T10:56:30;8.40;;;7.18;;
50350;SDS011;36250;48.740;22.174;2022-09-30T10:59:49;13.00;;;7.35;;
50350;SDS011;36250;48.740;22.174;2022-09-30T11:02:00;13.25;;;8.07;;
50350;SDS011;36250;48.740;22.174;2022-09-30T11:05:34;10.57;;;7.80;;
50350;SDS011;36250;48.740;22.174;2022-09-30T11:07:41;7.95;;;7.15;;
50350;SDS011;36250;48.740;22.174;2022-09-30T11:10:20;8.20;;;7.32;;
50350;SDS011;36250;48.740;22.174;2022-09-30T11:15:30;10.43;;;7.05;;
50350;SDS011;36250;48.740;22.174;2022-09-30T11:18:22;10.45;;;7.90;;
50350;SDS011;36250;48.740;22.174;2022-09-30T11:20:56;7.88;;;7.00;;
50350;SDS011;36250;48.740;22.174;2022-09-30T11:23:27;9.18;;;8.10;;
50350;SDS011;36250;48.740;22.174;2022-09-30T11:31:54;9.05;;;7.40;;
50350;SDS011;36250;48.740;22.174;2022-09-30T11:37:09;13.75;;;9.27;;
50350;SDS011;36250;48.740;22.174;2022-09-30T11:42:42;12.77;;;7.72;;
50350;SDS011;36250;48.740;22.174;2022-09-30T11:45:31;11.32;;;7.90;;
50350;SDS011;36250;48.740;22.174;2022-09-30T11:59:37;10.90;;;7.55;;
50350;SDS011;36250;48.740;22.174;2022-09-30T12:02:53;10.95;;;8.10;;
50350;SDS011;36250;48.740;22.174;2022-09-30T12:04:58;13.38;;;8.32;;
50350;SDS011;36250;48.740;22.174;2022-09-30T12:07:35;10.55;;;7.78;;
50350;SDS011;36250;48.740;22.174;2022-09-30T12:10:13;11.50;;;9.52;;
50350;SDS011;36250;48.740;22.174;2022-09-30T12:12:46;13.55;;;8.85;;
50350;SDS011;36250;48.740;22.174;2022-09-30T12:15:16;11.90;;;8.63;;
50350;SDS011;36250;48.740;22.174;2022-09-30T12:17:45;14.55;;;9.50;;
50350;SDS011;36250;48.740;22.174;2022-09-30T12:23:04;17.30;;;9.80;;
50350;SDS011;36250;48.740;22.174;2022-09-30T12:25:39;22.88;;;10.18;;
50350;SDS011;36250;48.740;22.174;2022-09-30T12:28:16;11.20;;;8.90;;
50350;SDS011;36250;48.740;22.174;2022-09-30T12:36:45;17.92;;;11.18;;
50350;SDS011;36250;48.740;22.174;2022-09-30T12:45:18;12.35;;;11.07;;
50350;SDS011;36250;48.740;22.174;2022-09-30T12:48:05;15.02;;;12.60;;
50350;SDS011;36250;48.740;22.174;2022-09-30T12:50:41;13.02;;;11.65;;
50350;SDS011;36250;48.740;22.174;2022-09-30T12:56:06;13.45;;;10.23;;
50350;SDS011;36250;48.740;22.174;2022-09-30T12:58:39;9.25;;;8.38;;
50350;SDS011;36250;48.740;22.174;2022-09-30T13:01:12;10.00;;;8.75;;
50350;SDS011;36250;48.740;22.174;2022-09-30T13:06:23;13.10;;;9.25;;
50350;SDS011;36250;48.740;22.174;2022-09-30T13:11:36;9.52;;;5.95;;
50350;SDS011;36250;48.740;22.174;2022-09-30T13:27:43;4.32;;;3.95;;
50350;SDS011;36250;48.740;22.174;2022-09-30T13:35:32;6.88;;;4.95;;
50350;SDS011;36250;48.740;22.174;2022-09-30T13:38:15;8.27;;;5.60;;
50350;SDS011;36250;48.740;22.174;2022-09-30T13:40:46;6.72;;;5.00;;
50350;SDS011;36250;48.740;22.174;2022-09-30T13:43:25;8.02;;;6.43;;
50350;SDS011;36250;48.740;22.174;2022-09-30T13:49:00;4.18;;;3.75;;
50350;SDS011;36250;48.740;22.174;2022-09-30T13:51:38;5.10;;;3.97;;
50350;SDS011;36250;48.740;22.174;2022-09-30T13:54:19;4.68;;;4.25;;
50350;SDS011;36250;48.740;22.174;2022-09-30T13:56:51;7.20;;;5.03;;
50350;SDS011;36250;48.740;22.174;2022-09-30T13:59:54;3.50;;;3.00;;
50350;SDS011;36250;48.740;22.174;2022-09-30T14:18:41;6.28;;;2.60;;
50350;SDS011;36250;48.740;22.174;2022-09-30T14:21:38;7.65;;;5.13;;
50350;SDS011;36250;48.740;22.174;2022-09-30T14:24:12;4.90;;;4.25;;
50350;SDS011;36250;48.740;22.174;2022-09-30T14:26:45;16.33;;;11.35;;
50350;SDS011;36250;48.740;22.174;2022-09-30T14:32:07;12.13;;;8.23;;
50350;SDS011;36250;48.740;22.174;2022-09-30T14:34:36;7.68;;;6.90;;
50350;SDS011;36250;48.740;22.174;2022-09-30T14:37:02;8.88;;;7.97;;
50350;SDS011;36250;48.740;22.174;2022-09-30T14:39:29;6.45;;;5.50;;
50350;SDS011;36250;48.740;22.174;2022-09-30T14:41:59;4.70;;;3.10;;
50350;SDS011;36250;48.740;22.174;2022-09-30T14:44:29;3.15;;;2.90;;
50350;SDS011;36250;48.740;22.174;2022-09-30T14:47:00;5.40;;;4.00;;
50350;SDS011;36250;48.740;22.174;2022-09-30T14:49:29;7.68;;;3.90;;
50350;SDS011;36250;48.740;22.174;2022-09-30T14:51:59;4.55;;;4.15;;
50350;SDS011;36250;48.740;22.174;2022-09-30T14:54:27;5.88;;;4.55;;
50350;SDS011;36250;48.740;22.174;2022-09-30T14:56:54;5.45;;;4.95;;
50350;SDS011;36250;48.740;22.174;2022-09-30T14:59:21;7.38;;;6.38;;
50350;SDS011;36250;48.740;22.174;2022-09-30T15:01:51;7.93;;;5.85;;
50350;SDS011;36250;48.740;22.174;2022-09-30T15:04:44;7.65;;;4.75;;
50350;SDS011;36250;48.740;22.174;2022-09-30T15:07:11;6.90;;;5.20;;
50350;SDS011;36250;48.740;22.174;2022-09-30T15:09:37;9.40;;;6.13;;
50350;SDS011;36250;48.740;22.174;2022-09-30T15:12:24;6.97;;;5.43;;
50350;SDS011;36250;48.740;22.174;2022-09-30T15:14:54;7.05;;;6.15;;
50350;SDS011;36250;48.740;22.174;2022-09-30T15:17:23;4.68;;;4.18;;
50350;SDS011;36250;48.740;22.174;2022-09-30T15:19:53;3.35;;;3.05;;
50350;SDS011;36250;48.740;22.174;2022-09-30T15:22:20;2.40;;;2.20;;
50350;SDS011;36250;48.740;22.174;2022-09-30T15:24:47;3.55;;;1.75;;
50350;SDS011;36250;48.740;22.174;2022-09-30T15:27:19;3.08;;;1.48;;
50350;SDS011;36250;48.740;22.174;2022-09-30T15:30:00;1.67;;;1.58;;
50350;SDS011;36250;48.740;22.174;2022-09-30T15:32:32;3.38;;;1.60;;
50350;SDS011;36250;48.740;22.174;2022-09-30T15:35:13;6.60;;;3.88;;
50350;SDS011;36250;48.740;22.174;2022-09-30T15:37:41;25.75;;;18.67;;
50350;SDS011;36250;48.740;22.174;2022-09-30T15:40:18;22.73;;;17.15;;
50350;SDS011;36250;48.740;22.174;2022-09-30T15:43:05;11.98;;;7.88;;
50350;SDS011;36250;48.740;22.174;2022-09-30T15:45:34;8.45;;;6.75;;
50350;SDS011;36250;48.740;22.174;2022-09-30T15:48:05;8.95;;;6.93;;
50350;SDS011;36250;48.740;22.174;2022-09-30T15:50:52;10.70;;;8.77;;
50350;SDS011;36250;48.740;22.174;2022-09-30T15:55:56;4.43;;;2.88;;
50350;SDS011;36250;48.740;22.174;2022-09-30T15:58:40;3.60;;;2.67;;
50350;SDS011;36250;48.740;22.174;2022-09-30T16:03:36;3.63;;;1.95;;
50350;SDS011;36250;48.740;22.174;2022-09-30T16:06:05;2.67;;;2.30;;
50350;SDS011;36250;48.740;22.174;2022-09-30T16:08:38;5.13;;;2.28;;
50350;SDS011;36250;48.740;22.174;2022-09-30T16:11:07;3.33;;;2.78;;
50350;SDS011;36250;48.740;22.174;2022-09-30T16:13:33;4.90;;;2.90;;
50350;SDS011;36250;48.740;22.174;2022-09-30T16:18:39;7.30;;;5.15;;
50350;SDS011;36250;48.740;22.174;2022-09-30T16:21:22;4.70;;;4.22;;
50350;SDS011;36250;48.740;22.174;2022-09-30T16:23:54;4.22;;;3.80;;
50350;SDS011;36250;48.740;22.174;2022-09-30T16:26:21;4.10;;;3.70;;
50350;SDS011;36250;48.740;22.174;2022-09-30T16:28:52;3.65;;;3.35;;
50350;SDS011;36250;48.740;22.174;2022-09-30T16:31:20;17.15;;;4.88;;
50350;SDS011;36250;48.740;22.174;2022-09-30T16:33:46;5.32;;;4.82;;
50350;SDS011;36250;48.740;22.174;2022-09-30T16:36:12;9.70;;;7.97;;
50350;SDS011;36250;48.740;22.174;2022-09-30T16:38:38;13.95;;;11.48;;
50350;SDS011;36250;48.740;22.174;2022-09-30T16:41:04;13.18;;;10.98;;
50350;SDS011;36250;48.740;22.174;2022-09-30T16:43:30;9.23;;;8.27;;
50350;SDS011;36250;48.740;22.174;2022-09-30T16:45:56;8.68;;;6.72;;
50350;SDS011;36250;48.740;22.174;2022-09-30T16:48:23;6.40;;;5.57;;
50350;SDS011;36250;48.740;22.174;2022-09-30T16:51:01;4.93;;;4.35;;
50350;SDS011;36250;48.740;22.174;2022-09-30T16:53:28;7.10;;;5.30;;
50350;SDS011;36250;48.740;22.174;2022-09-30T16:55:54;11.70;;;9.88;;
50350;SDS011;36250;48.740;22.174;2022-09-30T16:58:20;5.80;;;3.97;;
50350;SDS011;36250;48.740;22.174;2022-09-30T17:00:46;3.60;;;3.38;;
50350;SDS011;36250;48.740;22.174;2022-09-30T17:03:12;5.53;;;5.00;;
50350;SDS011;36250;48.740;22.174;2022-09-30T17:05:39;6.82;;;4.70;;
50350;SDS011;36250;48.740;22.174;2022-09-30T17:08:07;5.00;;;4.32;;
50350;SDS011;36250;48.740;22.174;2022-09-30T17:10:35;6.13;;;5.45;;
50350;SDS011;36250;48.740;22.174;2022-09-30T17:13:00;6.20;;;5.68;;
50350;SDS011;36250;48.740;22.174;2022-09-30T17:15:27;6.10;;;5.50;;
50350;SDS011;36250;48.740;22.174;2022-09-30T17:17:54;4.43;;;4.00;;
50350;SDS011;36250;48.740;22.174;2022-09-30T17:20:21;4.10;;;3.55;;
50350;SDS011;36250;48.740;22.174;2022-09-30T17:22:47;5.03;;;4.00;;
50350;SDS011;36250;48.740;22.174;2022-09-30T17:25:12;9.27;;;4.38;;
50350;SDS011;36250;48.740;22.174;2022-09-30T17:27:39;7.10;;;6.10;;
50350;SDS011;36250;48.740;22.174;2022-09-30T17:30:04;8.48;;;7.68;;
50350;SDS011;36250;48.740;22.174;2022-09-30T17:32:31;10.38;;;9.25;;
50350;SDS011;36250;48.740;22.174;2022-09-30T17:34:56;10.57;;;9.23;;
50350;SDS011;36250;48.740;22.174;2022-09-30T17:37:21;12.80;;;9.48;;
50350;SDS011;36250;48.740;22.174;2022-09-30T17:39:47;12.18;;;9.68;;
50350;SDS011;36250;48.740;22.174;2022-09-30T17:42:13;8.30;;;7.50;;